createdAt,value
2017-10-22T00:01:41.593Z,81.00
2017-10-22T00:04:08.667Z,81.90
2017-10-22T00:06:35.577Z,82.00
2017-10-22T00:09:01.930Z,83.00
2017-10-22T00:11:28.977Z,82.80
2017-10-22T00:13:56.533Z,82.50
2017-10-22T00:16:23.455Z,82.50
2017-10-22T00:18:50.051Z,82.60
2017-10-22T00:21:16.356Z,82.90
2017-10-22T00:23:44.004Z,82.40
2017-10-22T00:26:10.681Z,82.40
2017-10-22T00:28:37.718Z,81.80
2017-10-22T00:31:04.071Z,81.80
2017-10-22T00:33:31.270Z,81.60
2017-10-22T00:35:57.891Z,81.60
2017-10-22T00:38:24.243Z,81.30
2017-10-22T00:40:50.578Z,81.30
2017-10-22T00:43:17.059Z,80.70
2017-10-22T00:45:43.383Z,80.20
2017-10-22T00:48:09.805Z,79.80
2017-10-22T00:50:36.556Z,78.30
2017-10-22T00:53:03.247Z,77.10
2017-10-22T00:55:30.884Z,75.70
2017-10-22T00:57:57.233Z,75.70
2017-10-22T01:00:24.163Z,75.60
2017-10-22T01:02:51.002Z,73.40
2017-10-22T01:05:17.320Z,72.60
2017-10-22T01:07:44.114Z,72.30
2017-10-22T01:10:10.451Z,71.90
2017-10-22T01:12:37.967Z,71.20
2017-10-22T01:15:04.762Z,69.60
2017-10-22T01:17:31.595Z,69.70
2017-10-22T01:19:58.500Z,69.10
2017-10-22T01:22:24.842Z,67.00
2017-10-22T01:24:51.727Z,66.30
2017-10-22T01:27:18.059Z,67.00
2017-10-22T01:29:44.387Z,65.40
2017-10-22T01:32:10.877Z,65.60
2017-10-22T01:34:38.347Z,66.60
2017-10-22T01:37:04.699Z,66.60
2017-10-22T01:39:31.044Z,66.30
2017-10-22T01:41:57.540Z,66.70
2017-10-22T01:44:24.635Z,66.40
2017-10-22T01:46:51.079Z,66.30
2017-10-22T01:49:17.803Z,66.40
2017-10-22T01:51:44.641Z,66.30
2017-10-22T01:54:11.543Z,66.80
2017-10-22T01:56:37.872Z,66.50
2017-10-22T01:59:04.219Z,66.90
2017-10-22T02:01:30.684Z,67.00
2017-10-22T02:03:57.770Z,66.40
2017-10-22T02:06:24.748Z,66.30
2017-10-22T02:08:51.733Z,65.50
2017-10-22T02:11:18.540Z,66.30
2017-10-22T02:13:45.527Z,66.50
2017-10-22T02:16:11.842Z,66.20
2017-10-22T02:18:38.539Z,66.90
2017-10-22T02:21:05.306Z,67.40
2017-10-22T02:23:31.639Z,67.60
2017-10-22T02:25:57.995Z,68.10
2017-10-22T02:28:24.465Z,68.20
2017-10-22T02:30:50.792Z,68.40
2017-10-22T02:33:17.238Z,69.10
2017-10-22T02:35:44.230Z,69.40
2017-10-22T02:38:10.540Z,70.20
2017-10-22T02:40:37.625Z,70.70
2017-10-22T02:43:04.159Z,70.80
2017-10-22T02:45:30.978Z,70.80
2017-10-22T02:47:57.313Z,71.10
2017-10-22T02:50:24.746Z,71.30
2017-10-22T02:52:51.740Z,71.20
2017-10-22T02:55:20.102Z,71.70
2017-10-22T02:57:46.399Z,71.70
2017-10-22T03:00:12.756Z,71.80
2017-10-22T03:02:39.096Z,72.50
2017-10-22T03:05:05.820Z,73.10
2017-10-22T03:07:32.659Z,72.90
2017-10-22T03:09:59.480Z,73.60
2017-10-22T03:12:26.547Z,73.40
2017-10-22T03:14:52.868Z,73.40
2017-10-22T03:17:20.437Z,73.90
2017-10-22T03:19:47.208Z,73.90
2017-10-22T03:22:13.527Z,73.60
2017-10-22T03:24:39.830Z,73.50
2017-10-22T03:27:06.296Z,74.30
2017-10-22T03:29:32.598Z,75.90
2017-10-22T03:31:59.006Z,75.40
2017-10-22T03:34:25.651Z,75.70
2017-10-22T03:36:51.964Z,76.00
2017-10-22T03:39:18.295Z,77.20
2017-10-22T03:41:45.108Z,77.60
2017-10-22T03:44:12.163Z,77.50
2017-10-22T03:46:39.201Z,78.70
2017-10-22T03:49:05.943Z,78.70
2017-10-22T03:51:32.247Z,78.90
2017-10-22T03:53:59.088Z,78.60
2017-10-22T03:56:25.866Z,79.30
2017-10-22T03:58:52.158Z,79.80
2017-10-22T04:01:18.449Z,79.80
2017-10-22T04:03:44.780Z,79.40
2017-10-22T04:06:11.731Z,80.00
2017-10-22T04:08:38.027Z,80.30
2017-10-22T04:11:04.319Z,82.50
2017-10-22T04:13:31.399Z,83.70
2017-10-22T04:15:58.119Z,83.80
2017-10-22T04:18:25.741Z,83.80
2017-10-22T04:20:52.039Z,84.10
2017-10-22T04:23:18.347Z,85.80
2017-10-22T04:25:45.158Z,86.10
2017-10-22T04:28:11.455Z,84.60
2017-10-22T04:30:38.302Z,84.70
2017-10-22T04:33:05.053Z,86.50
2017-10-22T04:35:31.676Z,85.90
2017-10-22T04:37:58.724Z,86.30
2017-10-22T04:40:26.093Z,85.80
2017-10-22T04:42:53.144Z,85.60
2017-10-22T04:45:20.184Z,86.70
2017-10-22T04:47:46.638Z,86.90
2017-10-22T04:50:14.027Z,87.00
2017-10-22T04:52:40.367Z,87.00
2017-10-22T04:55:07.139Z,87.60
2017-10-22T04:57:33.487Z,86.80
2017-10-22T04:59:59.813Z,86.60
2017-10-22T05:02:26.494Z,87.70
2017-10-22T05:04:53.984Z,88.30
2017-10-22T05:07:20.803Z,88.40
2017-10-22T05:09:47.841Z,88.00
2017-10-22T05:12:14.718Z,88.20
2017-10-22T05:14:41.043Z,89.70
2017-10-22T05:17:08.769Z,90.30
2017-10-22T05:19:35.598Z,90.40
2017-10-22T05:22:01.883Z,89.70
2017-10-22T05:24:29.375Z,88.90
2017-10-22T05:26:56.555Z,89.00
2017-10-22T05:29:23.271Z,89.60
2017-10-22T05:31:49.603Z,88.60
2017-10-22T05:34:17.271Z,88.50
2017-10-22T05:36:43.584Z,88.50
2017-10-22T05:39:09.917Z,87.80
2017-10-22T05:41:37.027Z,88.70
2017-10-22T05:44:03.365Z,88.70
2017-10-22T05:46:29.782Z,88.70
2017-10-22T05:48:56.878Z,89.90
2017-10-22T05:51:23.187Z,91.70
2017-10-22T05:53:50.051Z,89.60
2017-10-22T05:56:16.967Z,90.20
2017-10-22T05:58:43.290Z,90.70
2017-10-22T06:01:10.675Z,89.90
2017-10-22T06:03:37.001Z,89.90
2017-10-22T06:06:03.798Z,89.90
2017-10-22T06:08:30.483Z,89.80
2017-10-22T06:10:56.872Z,89.30
2017-10-22T06:13:23.163Z,89.10
2017-10-22T06:15:49.831Z,89.00
2017-10-22T06:18:16.819Z,89.20
2017-10-22T06:20:43.600Z,90.20
2017-10-22T06:23:09.921Z,89.10
2017-10-22T06:25:37.407Z,89.10
2017-10-22T06:28:03.715Z,89.10
2017-10-22T06:30:30.776Z,88.00
2017-10-22T06:32:57.864Z,88.00
2017-10-22T06:35:24.670Z,88.10
2017-10-22T06:37:51.764Z,87.90
2017-10-22T06:40:18.109Z,87.90
2017-10-22T06:42:44.479Z,88.00
2017-10-22T06:45:10.822Z,87.40
2017-10-22T06:47:37.263Z,85.40
2017-10-22T06:50:04.164Z,86.90
2017-10-22T06:52:30.515Z,87.10
2017-10-22T06:54:57.545Z,87.30
2017-10-22T06:57:23.899Z,87.00
2017-10-22T06:59:50.682Z,87.50
2017-10-22T07:02:17.057Z,87.40
2017-10-22T07:04:43.428Z,86.30
2017-10-22T07:07:10.223Z,87.20
2017-10-22T07:09:37.814Z,87.60
2017-10-22T07:12:04.156Z,87.70
2017-10-22T07:14:30.499Z,87.80
2017-10-22T07:16:56.879Z,87.50
2017-10-22T07:19:24.515Z,88.10
2017-10-22T07:21:50.827Z,87.50
2017-10-22T07:24:17.565Z,87.20
2017-10-22T07:26:43.885Z,87.60
2017-10-22T07:29:10.939Z,87.40
2017-10-22T07:31:38.020Z,86.90
2017-10-22T07:34:04.834Z,86.90
2017-10-22T07:36:31.907Z,86.20
2017-10-22T07:38:58.271Z,86.20
2017-10-22T07:41:24.780Z,85.40
2017-10-22T07:43:51.120Z,85.60
2017-10-22T07:46:17.580Z,85.80
2017-10-22T07:48:44.404Z,84.20
2017-10-22T07:51:10.740Z,84.70
2017-10-22T07:53:37.760Z,84.90
2017-10-22T07:56:04.435Z,83.70
2017-10-22T07:58:30.752Z,84.60
2017-10-22T08:00:57.848Z,84.40
2017-10-22T08:03:24.541Z,84.40
2017-10-22T08:05:51.606Z,86.10
2017-10-22T08:08:18.646Z,85.40
2017-10-22T08:10:46.104Z,84.50
2017-10-22T08:13:13.000Z,84.50
2017-10-22T08:15:39.936Z,85.70
2017-10-22T08:18:06.873Z,85.00
2017-10-22T08:20:34.483Z,84.10
2017-10-22T08:23:00.771Z,84.10
2017-10-22T08:25:27.831Z,84.50
2017-10-22T08:27:54.303Z,84.50
2017-10-22T08:30:20.612Z,84.50
2017-10-22T08:32:47.016Z,84.50
2017-10-22T08:35:13.751Z,84.90
2017-10-22T08:37:40.208Z,83.70
2017-10-22T08:40:07.286Z,83.60
2017-10-22T08:42:33.659Z,83.50
2017-10-22T08:45:00.012Z,83.20
2017-10-22T08:47:26.517Z,84.20
2017-10-22T08:49:53.451Z,84.50
2017-10-22T08:52:19.808Z,84.10
2017-10-22T08:54:46.705Z,83.40
2017-10-22T08:57:13.488Z,83.80
2017-10-22T08:59:40.328Z,83.60
2017-10-22T09:02:06.663Z,84.80
2017-10-22T09:04:33.012Z,86.60
2017-10-22T09:06:59.994Z,86.20
2017-10-22T09:09:26.323Z,85.90
2017-10-22T09:11:53.140Z,85.40
2017-10-22T09:14:20.090Z,85.40
2017-10-22T09:16:46.459Z,85.10
2017-10-22T09:19:13.272Z,85.20
2017-10-22T09:21:40.087Z,84.80
2017-10-22T09:24:06.423Z,85.10
2017-10-22T09:26:32.755Z,85.70
2017-10-22T09:28:59.234Z,84.80
2017-10-22T09:31:25.570Z,84.70
2017-10-22T09:33:52.291Z,84.10
2017-10-22T09:36:19.367Z,84.50
2017-10-22T09:38:45.714Z,84.40
2017-10-22T09:41:12.091Z,84.20
2017-10-22T09:43:38.419Z,84.00
2017-10-22T09:46:05.132Z,83.20
2017-10-22T09:48:31.526Z,82.60
2017-10-22T09:50:58.374Z,82.20
2017-10-22T09:53:25.224Z,82.00
2017-10-22T09:55:51.956Z,82.50
2017-10-22T09:58:18.761Z,82.10
2017-10-22T10:00:45.108Z,80.30
2017-10-22T10:03:11.451Z,80.60
2017-10-22T10:05:38.223Z,80.10
2017-10-22T10:08:04.579Z,80.40
2017-10-22T10:10:31.675Z,81.10
2017-10-22T10:12:58.350Z,81.10
2017-10-22T10:15:25.359Z,80.80
2017-10-22T10:17:52.031Z,80.30
2017-10-22T10:20:18.658Z,80.20
2017-10-22T10:22:45.020Z,80.30
2017-10-22T10:25:11.406Z,79.30
2017-10-22T10:27:38.927Z,82.20
2017-10-22T10:30:05.330Z,82.20
2017-10-22T10:32:31.679Z,82.20
2017-10-22T10:34:58.585Z,82.10
2017-10-22T10:37:26.088Z,80.50
2017-10-22T10:39:52.673Z,80.50
2017-10-22T10:42:19.369Z,79.60
2017-10-22T10:44:45.727Z,79.20
2017-10-22T10:47:12.071Z,77.70
2017-10-22T10:49:38.939Z,79.10
2017-10-22T10:52:05.288Z,78.10
2017-10-22T10:54:32.821Z,79.40
2017-10-22T10:57:00.409Z,79.40
2017-10-22T10:59:27.315Z,79.60
2017-10-22T11:01:54.032Z,79.60
2017-10-22T11:04:20.359Z,79.00
2017-10-22T11:06:47.431Z,77.40
2017-10-22T11:09:14.479Z,77.40
2017-10-22T11:11:40.811Z,76.70
2017-10-22T11:14:07.161Z,78.60
2017-10-22T11:16:33.544Z,79.30
2017-10-22T11:19:00.288Z,79.40
2017-10-22T11:21:26.695Z,78.70
2017-10-22T11:23:53.008Z,78.30
2017-10-22T11:26:19.375Z,79.00
2017-10-22T11:28:45.671Z,78.00
2017-10-22T11:31:12.420Z,78.00
2017-10-22T11:33:39.504Z,78.20
2017-10-22T11:36:06.241Z,78.20
2017-10-22T11:38:32.579Z,79.10
2017-10-22T11:40:58.998Z,78.70
2017-10-22T11:43:25.340Z,79.50
2017-10-22T11:45:52.123Z,79.50
2017-10-22T11:48:18.909Z,79.40
2017-10-22T11:50:45.815Z,77.30
2017-10-22T11:53:12.887Z,78.70
2017-10-22T11:55:39.724Z,78.40
2017-10-22T11:58:06.035Z,77.70
2017-10-22T12:00:32.916Z,77.40
2017-10-22T12:02:59.247Z,78.40
2017-10-22T12:05:25.548Z,79.00
2017-10-22T12:07:52.328Z,79.90
2017-10-22T12:10:18.654Z,80.20
2017-10-22T12:12:44.987Z,80.30
2017-10-22T12:15:11.999Z,81.80
2017-10-22T12:17:38.718Z,81.20
2017-10-22T12:20:05.555Z,81.20
2017-10-22T12:22:31.887Z,79.90
2017-10-22T12:24:58.300Z,69.20
2017-10-22T12:27:25.029Z,66.10
2017-10-22T12:29:51.344Z,67.00
2017-10-22T12:32:18.398Z,68.30
2017-10-22T12:34:45.259Z,68.20
2017-10-22T12:37:11.596Z,69.00
2017-10-22T12:39:38.623Z,71.40
2017-10-22T12:42:05.696Z,72.00
2017-10-22T12:44:32.515Z,71.90
2017-10-22T12:46:59.571Z,72.10
2017-10-22T12:49:27.032Z,72.50
2017-10-22T12:51:54.499Z,73.30
2017-10-22T12:54:21.586Z,73.00
2017-10-22T12:56:48.395Z,73.00
2017-10-22T12:59:15.808Z,72.90
2017-10-22T13:01:42.716Z,72.80
2017-10-22T13:04:10.188Z,71.70
2017-10-22T13:06:37.003Z,71.60
2017-10-22T13:09:03.715Z,71.70
2017-10-22T13:11:30.005Z,70.90
2017-10-22T13:13:57.037Z,69.90
2017-10-22T13:16:23.491Z,69.80
2017-10-22T13:18:50.923Z,70.80
2017-10-22T13:21:17.240Z,70.70
2017-10-22T13:23:43.970Z,71.40
2017-10-22T13:26:10.279Z,72.90
2017-10-22T13:28:37.312Z,71.80
2017-10-22T13:31:03.680Z,71.80
2017-10-22T13:33:29.968Z,69.90
2017-10-22T13:35:56.752Z,71.70
2017-10-22T13:38:23.391Z,70.20
2017-10-22T13:40:51.156Z,70.80
2017-10-22T13:43:18.673Z,70.90
2017-10-22T13:45:45.507Z,70.80
2017-10-22T13:48:12.279Z,70.00
2017-10-22T13:50:38.614Z,71.50
2017-10-22T13:53:05.338Z,72.10
2017-10-22T13:55:32.004Z,72.00
2017-10-22T13:57:58.835Z,71.30
2017-10-22T14:00:25.819Z,71.90
2017-10-22T14:02:52.579Z,71.60
2017-10-22T14:05:20.385Z,71.40
2017-10-22T14:07:46.809Z,71.30
2017-10-22T14:10:13.435Z,71.30
2017-10-22T14:12:40.880Z,72.30
2017-10-22T14:15:07.778Z,72.30
2017-10-22T14:17:34.574Z,73.10
2017-10-22T14:20:01.339Z,72.90
2017-10-22T14:22:28.390Z,72.70
2017-10-22T14:24:55.861Z,71.60
2017-10-22T14:27:22.940Z,72.30
2017-10-22T14:29:49.719Z,72.40
2017-10-22T14:32:16.780Z,73.10
2017-10-22T14:34:43.667Z,73.70
2017-10-22T14:37:10.025Z,75.10
2017-10-22T14:39:36.974Z,75.30
2017-10-22T14:42:03.800Z,75.20
2017-10-22T14:44:30.103Z,75.50
2017-10-22T14:46:56.447Z,75.30
2017-10-22T14:49:23.169Z,75.90
2017-10-22T14:51:49.951Z,76.20
2017-10-22T14:54:16.992Z,76.50
2017-10-22T14:56:43.731Z,76.40
2017-10-22T14:59:10.672Z,76.70
2017-10-22T15:01:37.002Z,76.80
2017-10-22T15:04:03.343Z,76.90
2017-10-22T15:06:29.983Z,76.90
2017-10-22T15:08:56.756Z,77.40
2017-10-22T15:11:24.224Z,78.20
2017-10-22T15:13:52.039Z,78.00
2017-10-22T15:16:18.773Z,78.10
2017-10-22T15:18:45.948Z,78.40
2017-10-22T15:21:12.800Z,78.00
2017-10-22T15:23:39.576Z,78.70
2017-10-22T15:26:06.412Z,78.40
2017-10-22T15:28:33.359Z,78.40
2017-10-22T15:31:00.195Z,78.30
2017-10-22T15:33:26.976Z,77.60
2017-10-22T15:35:54.473Z,78.30
2017-10-22T15:38:21.187Z,78.40
2017-10-22T15:40:48.820Z,78.80
2017-10-22T15:43:15.522Z,78.90
2017-10-22T15:45:42.363Z,79.00
2017-10-22T15:48:10.295Z,78.50
2017-10-22T15:50:37.207Z,79.00
2017-10-22T15:53:03.971Z,79.10
2017-10-22T15:55:30.809Z,79.50
2017-10-22T15:58:12.858Z,80.10
2017-10-22T16:00:40.356Z,79.70
2017-10-22T16:03:07.111Z,79.70
2017-10-22T16:05:34.015Z,79.90
2017-10-22T16:08:01.607Z,79.50
2017-10-22T16:10:28.484Z,79.40
2017-10-22T16:12:55.331Z,80.00
2017-10-22T16:15:22.076Z,79.60
2017-10-22T16:17:48.919Z,79.40
2017-10-22T16:20:15.516Z,79.70
2017-10-22T16:22:42.574Z,80.50
2017-10-22T16:25:10.176Z,80.20
2017-10-22T16:27:36.475Z,80.30
2017-10-22T16:30:03.531Z,80.00
2017-10-22T16:32:29.874Z,80.10
2017-10-22T16:34:56.706Z,79.90
2017-10-22T16:37:24.236Z,80.00
2017-10-22T16:39:50.528Z,80.00
2017-10-22T16:42:17.277Z,80.10
2017-10-22T16:44:44.003Z,80.40
2017-10-22T16:47:11.063Z,81.30
2017-10-22T16:49:37.824Z,81.30
2017-10-22T16:52:04.120Z,80.80
2017-10-22T16:54:31.831Z,80.60
2017-10-22T16:56:58.483Z,80.60
2017-10-22T16:59:24.805Z,81.60
2017-10-22T17:01:51.100Z,80.60
2017-10-22T17:04:17.429Z,80.60
2017-10-22T17:06:43.740Z,80.50
2017-10-22T17:09:10.509Z,80.60
2017-10-22T17:11:37.413Z,81.40
2017-10-22T17:14:04.211Z,82.30
2017-10-22T17:16:30.507Z,80.90
2017-10-22T17:18:57.442Z,80.80
2017-10-22T17:21:23.761Z,80.80
2017-10-22T17:23:50.079Z,80.90
2017-10-22T17:26:17.151Z,80.60
2017-10-22T17:28:43.979Z,80.60
2017-10-22T17:31:11.882Z,80.40
2017-10-22T17:33:38.686Z,80.40
2017-10-22T17:36:05.359Z,80.50
2017-10-22T17:38:31.687Z,80.70
2017-10-22T17:40:59.187Z,80.80
2017-10-22T17:43:26.074Z,80.70
2017-10-22T17:45:52.848Z,80.50
2017-10-22T17:48:19.892Z,81.50
2017-10-22T17:50:47.456Z,81.70
2017-10-22T17:53:14.884Z,82.70
2017-10-22T17:55:41.744Z,82.70
2017-10-22T17:58:08.359Z,81.90
2017-10-22T18:00:35.304Z,81.40
2017-10-22T18:03:02.020Z,81.70
2017-10-22T18:05:28.374Z,81.80
2017-10-22T18:07:55.093Z,81.70
2017-10-22T18:10:22.794Z,81.40
2017-10-22T18:12:49.182Z,81.50
2017-10-22T18:15:17.059Z,81.00
2017-10-22T18:17:44.507Z,80.70
2017-10-22T18:20:11.203Z,80.80
2017-10-22T18:22:37.519Z,81.30
2017-10-22T18:25:04.389Z,80.90
2017-10-22T18:27:30.851Z,80.60
2017-10-22T18:29:57.774Z,81.90
2017-10-22T18:32:24.971Z,80.20
2017-10-22T18:34:53.163Z,79.40
2017-10-22T18:37:19.786Z,79.30
2017-10-22T18:39:46.285Z,79.30
2017-10-22T18:42:12.941Z,79.00
2017-10-22T18:44:39.856Z,79.70
2017-10-22T18:47:06.981Z,80.30
2017-10-22T18:49:33.903Z,80.30
2017-10-22T18:52:00.240Z,80.10
2017-10-22T18:54:26.974Z,79.20
2017-10-22T18:56:53.735Z,79.90
2017-10-22T18:59:20.060Z,80.20
2017-10-22T19:01:46.927Z,80.30
2017-10-22T19:04:13.233Z,80.20
2017-10-22T19:06:39.559Z,79.60
2017-10-22T19:09:06.368Z,79.60
2017-10-22T19:11:33.186Z,80.60
2017-10-22T19:14:00.047Z,82.60
2017-10-22T19:16:26.376Z,82.60
2017-10-22T19:18:53.215Z,82.50
2017-10-22T19:21:19.549Z,83.10
2017-10-22T19:23:45.859Z,82.80
2017-10-22T19:26:12.633Z,82.70
2017-10-22T19:28:39.355Z,83.30
2017-10-22T19:31:06.033Z,82.50
2017-10-22T19:33:32.351Z,82.50
2017-10-22T19:35:59.120Z,83.10
2017-10-22T19:38:25.425Z,82.90
2017-10-22T19:40:51.754Z,82.30
2017-10-22T19:43:19.252Z,82.60
2017-10-22T19:45:45.610Z,83.10
2017-10-22T19:48:12.343Z,82.20
2017-10-22T19:50:39.179Z,81.70
2017-10-22T19:53:05.504Z,83.20
2017-10-22T19:55:31.815Z,82.70
2017-10-22T19:58:13.639Z,82.80
2017-10-22T20:00:40.669Z,82.60
2017-10-22T20:03:07.371Z,82.80
2017-10-22T20:05:34.977Z,82.20
2017-10-22T20:08:01.860Z,81.60
2017-10-22T20:10:28.666Z,82.20
2017-10-22T20:12:55.015Z,82.50
2017-10-22T20:15:21.978Z,83.60
2017-10-22T20:17:48.924Z,83.30
2017-10-22T20:20:15.929Z,83.50
2017-10-22T20:22:43.008Z,83.20
2017-10-22T20:25:10.016Z,83.30
2017-10-22T20:27:36.333Z,83.50
2017-10-22T20:30:03.287Z,83.20
2017-10-22T20:32:30.158Z,83.30
2017-10-22T20:34:56.893Z,83.30
2017-10-22T20:37:23.543Z,83.20
2017-10-22T20:39:49.846Z,83.80
2017-10-22T20:42:16.171Z,83.60
2017-10-22T20:44:43.009Z,83.00
2017-10-22T20:47:09.334Z,83.70
2017-10-22T20:49:35.635Z,83.50
2017-10-22T20:52:02.340Z,83.40
2017-10-22T20:54:29.075Z,83.50
2017-10-22T20:56:55.879Z,83.20
2017-10-22T20:59:23.423Z,84.80
2017-10-22T21:01:49.735Z,85.00
2017-10-22T21:04:16.036Z,85.10
2017-10-22T21:06:42.471Z,84.60
2017-10-22T21:09:09.517Z,84.70
2017-10-22T21:11:36.655Z,85.70
2017-10-22T21:14:03.100Z,85.60
2017-10-22T21:16:30.241Z,84.40
2017-10-22T21:18:57.183Z,84.40
2017-10-22T21:21:23.597Z,84.40
2017-10-22T21:23:50.342Z,84.40
2017-10-22T21:26:16.645Z,83.90
2017-10-22T21:28:42.943Z,84.30
2017-10-22T21:31:09.279Z,84.50
2017-10-22T21:33:35.579Z,84.40
2017-10-22T21:36:02.255Z,84.20
2017-10-22T21:38:28.555Z,84.80
2017-10-22T21:40:54.852Z,84.30
2017-10-22T21:43:22.761Z,84.30
2017-10-22T21:45:49.091Z,84.40
2017-10-22T21:48:15.811Z,85.10
2017-10-22T21:50:42.863Z,84.90
2017-10-22T21:53:11.239Z,84.70
2017-10-22T21:55:38.291Z,84.80
2017-10-22T21:58:05.651Z,84.60
2017-10-22T22:00:32.688Z,84.50
2017-10-22T22:02:58.991Z,84.50
2017-10-22T22:05:25.323Z,84.70
2017-10-22T22:07:51.651Z,85.40
2017-10-22T22:10:18.351Z,84.80
2017-10-22T22:12:45.403Z,85.10
2017-10-22T22:15:11.709Z,85.20
2017-10-22T22:17:38.387Z,84.80
2017-10-22T22:20:05.928Z,85.10
2017-10-22T22:22:32.767Z,85.10
2017-10-22T22:24:59.407Z,85.00
2017-10-22T22:27:25.714Z,84.70
2017-10-22T22:29:52.017Z,85.10
2017-10-22T22:32:19.543Z,84.80
2017-10-22T22:34:46.466Z,84.80
2017-10-22T22:37:12.785Z,84.10
2017-10-22T22:39:39.464Z,83.70
2017-10-22T22:42:05.771Z,84.60
2017-10-22T22:44:32.459Z,83.90
2017-10-22T22:46:59.147Z,83.40
2017-10-22T22:49:25.446Z,84.80
2017-10-22T22:51:51.731Z,83.80
2017-10-22T22:54:18.519Z,83.60
2017-10-22T22:56:44.823Z,83.80
2017-10-22T22:59:11.467Z,84.10
2017-10-22T23:01:37.775Z,84.40
2017-10-22T23:04:04.091Z,84.40
2017-10-22T23:06:30.422Z,84.30
2017-10-22T23:08:56.725Z,83.50
2017-10-22T23:11:23.140Z,83.50
2017-10-22T23:13:49.452Z,82.80
2017-10-22T23:16:16.495Z,83.80
2017-10-22T23:18:43.999Z,83.90
2017-10-22T23:21:10.319Z,83.90
2017-10-22T23:23:36.621Z,85.00
2017-10-22T23:26:02.961Z,84.60
2017-10-22T23:28:29.251Z,84.30
2017-10-22T23:30:55.662Z,84.80
2017-10-22T23:33:22.394Z,84.00
2017-10-22T23:35:49.901Z,83.40
2017-10-22T23:38:16.202Z,83.40
2017-10-22T23:40:43.011Z,83.60
2017-10-22T23:43:09.318Z,83.20
2017-10-22T23:45:35.619Z,83.00
2017-10-22T23:48:02.699Z,81.90
2017-10-22T23:50:29.011Z,81.90
2017-10-22T23:52:55.795Z,83.10
2017-10-22T23:55:22.556Z,82.80
2017-10-22T23:57:49.423Z,82.80
